createdAt,value
2023-03-08T00:13:36.828Z,4.80
2023-03-08T00:16:07.860Z,4.80
2023-03-08T00:18:36.294Z,4.70
2023-03-08T00:21:16.841Z,4.70
2023-03-08T00:23:45.664Z,4.70
2023-03-08T00:26:13.667Z,4.70
2023-03-08T00:28:41.338Z,4.70
2023-03-08T00:31:12.608Z,4.70
2023-03-08T00:33:40.647Z,4.70
2023-03-08T00:36:17.221Z,4.70
2023-03-08T00:38:45.183Z,4.60
2023-03-08T00:41:12.896Z,4.60
2023-03-08T00:43:42.288Z,4.70
2023-03-08T00:46:10.333Z,4.70
2023-03-08T00:48:37.411Z,4.80
2023-03-08T00:51:04.591Z,4.70
2023-03-08T00:53:31.749Z,4.60
2023-03-08T00:56:00.951Z,4.60
2023-03-08T00:58:30.846Z,4.60
2023-03-08T01:00:58.728Z,4.50
2023-03-08T01:03:27.100Z,4.40
2023-03-08T01:05:56.564Z,4.50
2023-03-08T01:08:27.137Z,4.50
2023-03-08T01:10:57.989Z,4.40
2023-03-08T01:13:28.826Z,4.40
2023-03-08T01:15:56.358Z,4.40
2023-03-08T01:18:23.763Z,4.30
2023-03-08T01:20:59.805Z,4.40
2023-03-08T01:23:27.174Z,4.50
2023-03-08T01:26:12.978Z,4.50
2023-03-08T01:28:40.164Z,4.50
2023-03-08T01:31:35.701Z,4.50
2023-03-08T01:34:02.848Z,4.60
2023-03-08T01:36:30.088Z,4.60
2023-03-08T01:39:00.780Z,4.60
2023-03-08T01:41:31.782Z,4.60
2023-03-08T01:43:58.868Z,4.50
2023-03-08T01:46:38.070Z,4.50
2023-03-08T01:49:11.973Z,4.50
2023-03-08T01:52:08.437Z,4.50
2023-03-08T01:54:48.005Z,4.50
2023-03-08T01:57:18.686Z,4.40
2023-03-08T01:59:50.146Z,4.30
2023-03-08T02:02:28.328Z,4.30
2023-03-08T02:04:55.699Z,4.40
2023-03-08T02:07:22.843Z,4.40
2023-03-08T02:09:50.607Z,4.40
2023-03-08T02:12:17.911Z,4.40
2023-03-08T02:14:46.901Z,4.40
2023-03-08T02:17:14.074Z,4.30
2023-03-08T02:19:56.454Z,4.30
2023-03-08T02:22:24.139Z,4.30
2023-03-08T02:24:51.208Z,4.30
2023-03-08T02:27:24.916Z,4.30
2023-03-08T02:29:52.355Z,4.20
2023-03-08T02:32:19.530Z,4.10
2023-03-08T02:34:46.677Z,4.10
2023-03-08T02:37:13.763Z,4.10
2023-03-08T02:39:40.822Z,4.10
2023-03-08T02:42:09.145Z,4.10
2023-03-08T02:44:36.228Z,4.00
2023-03-08T02:47:03.306Z,4.00
2023-03-08T02:49:30.444Z,4.00
2023-03-08T02:51:57.606Z,4.30
2023-03-08T02:54:24.696Z,4.10
2023-03-08T02:56:51.784Z,4.00
2023-03-08T02:59:18.970Z,4.00
2023-03-08T03:01:46.250Z,3.90
2023-03-08T03:04:13.420Z,4.00
2023-03-08T03:06:41.644Z,3.90
2023-03-08T03:09:11.688Z,3.80
2023-03-08T03:11:41.252Z,3.90
2023-03-08T03:14:08.421Z,3.80
2023-03-08T03:16:37.105Z,3.80
2023-03-08T03:19:04.257Z,3.80
2023-03-08T03:21:31.751Z,3.90
2023-03-08T03:23:58.967Z,3.90
2023-03-08T03:26:26.631Z,3.90
2023-03-08T03:28:57.935Z,3.90
2023-03-08T03:31:26.640Z,3.80
2023-03-08T03:33:54.284Z,3.80
2023-03-08T03:36:23.171Z,3.90
2023-03-08T03:38:50.854Z,3.90
2023-03-08T03:41:21.907Z,3.90
2023-03-08T03:43:50.001Z,3.80
2023-03-08T03:46:20.282Z,3.80
2023-03-08T03:48:47.744Z,3.80
2023-03-08T03:51:18.616Z,3.70
2023-03-08T03:53:46.506Z,3.60
2023-03-08T03:56:22.215Z,3.50
2023-03-08T03:58:50.209Z,3.50
2023-03-08T04:01:27.070Z,3.50
2023-03-08T04:03:56.029Z,3.50
2023-03-08T04:06:26.658Z,3.40
2023-03-08T04:09:10.990Z,3.40
2023-03-08T04:11:39.850Z,3.40
2023-03-08T04:14:08.001Z,3.40
2023-03-08T04:16:38.522Z,3.40
2023-03-08T04:19:10.091Z,3.40
2023-03-08T04:21:37.455Z,3.40
2023-03-08T04:24:05.360Z,3.30
2023-03-08T04:26:32.756Z,3.40
2023-03-08T04:29:00.136Z,3.30
2023-03-08T04:31:30.447Z,3.30
2023-03-08T04:33:58.523Z,3.30
2023-03-08T04:36:26.351Z,3.30
2023-03-08T04:38:53.468Z,3.30
2023-03-08T04:41:20.835Z,3.20
2023-03-08T04:43:54.539Z,3.20
2023-03-08T04:46:26.183Z,3.40
2023-03-08T04:48:55.650Z,3.50
2023-03-08T04:51:25.416Z,3.40
2023-03-08T04:53:53.000Z,3.40
2023-03-08T04:56:20.545Z,3.50
2023-03-08T04:58:48.719Z,3.60
2023-03-08T05:01:23.560Z,3.60
2023-03-08T05:03:53.137Z,3.50
2023-03-08T05:06:22.734Z,3.50
2023-03-08T05:08:49.999Z,3.50
2023-03-08T05:11:24.691Z,3.50
2023-03-08T05:13:54.875Z,3.40
2023-03-08T05:16:22.462Z,3.50
2023-03-08T05:18:49.867Z,3.60
2023-03-08T05:21:20.352Z,3.70
2023-03-08T05:23:47.941Z,3.60
2023-03-08T05:26:18.095Z,3.50
2023-03-08T05:28:45.745Z,3.60
2023-03-08T05:31:18.942Z,3.60
2023-03-08T05:33:50.995Z,3.60
2023-03-08T05:36:19.712Z,3.50
2023-03-08T05:38:47.020Z,3.50
2023-03-08T05:41:16.777Z,3.40
2023-03-08T05:43:44.192Z,3.40
2023-03-08T05:46:17.812Z,3.40
2023-03-08T05:48:45.962Z,3.40
2023-03-08T05:51:17.130Z,3.40
2023-03-08T05:53:44.740Z,3.50
2023-03-08T05:56:21.578Z,3.50
2023-03-08T05:58:49.145Z,3.50
2023-03-08T06:01:20.138Z,3.50
2023-03-08T06:03:50.423Z,3.50
2023-03-08T06:06:19.748Z,3.60
2023-03-08T06:08:49.715Z,3.60
2023-03-08T06:11:18.363Z,3.60
2023-03-08T06:13:45.579Z,3.60
2023-03-08T06:16:12.694Z,3.60
2023-03-08T06:18:42.127Z,3.60
2023-03-08T06:21:16.021Z,3.60
2023-03-08T06:23:45.565Z,3.50
2023-03-08T06:26:13.456Z,3.50
2023-03-08T06:28:40.920Z,3.60
2023-03-08T06:31:13.201Z,3.60
2023-03-08T06:33:40.510Z,3.60
2023-03-08T06:36:11.107Z,3.50
2023-03-08T06:38:41.321Z,3.40
2023-03-08T06:41:10.327Z,3.40
2023-03-08T06:43:38.074Z,3.30
2023-03-08T06:46:07.535Z,3.40
2023-03-08T06:48:35.892Z,3.40
2023-03-08T06:51:04.785Z,3.30
2023-03-08T06:53:36.361Z,3.30
2023-03-08T06:56:04.441Z,3.30
2023-03-08T06:58:32.208Z,3.40
2023-03-08T07:01:00.197Z,3.40
2023-03-08T07:03:28.216Z,3.50
2023-03-08T07:06:00.689Z,3.50
2023-03-08T07:08:28.038Z,3.50
2023-03-08T07:10:55.410Z,3.50
2023-03-08T07:13:23.851Z,3.60
2023-03-08T07:15:53.989Z,3.60
2023-03-08T07:18:21.236Z,3.70
2023-03-08T07:20:56.988Z,3.70
2023-03-08T07:23:24.734Z,3.70
2023-03-08T07:25:52.070Z,3.60
2023-03-08T07:28:19.196Z,3.50
2023-03-08T07:30:52.169Z,3.40
2023-03-08T07:33:21.401Z,3.30
2023-03-08T07:35:49.316Z,3.20
2023-03-08T07:38:17.033Z,3.10
2023-03-08T07:40:44.491Z,3.00
2023-03-08T07:43:11.703Z,2.80
2023-03-08T07:45:39.806Z,2.50
2023-03-08T07:48:07.525Z,2.40
2023-03-08T07:50:34.953Z,2.20
2023-03-08T07:53:02.185Z,2.10
2023-03-08T07:55:29.404Z,1.90
2023-03-08T07:57:56.728Z,1.90
2023-03-08T08:00:24.127Z,1.80
2023-03-08T08:02:54.159Z,1.70
2023-03-08T08:05:22.238Z,1.60
2023-03-08T08:07:49.483Z,1.60
2023-03-08T08:10:17.480Z,1.50
2023-03-08T08:12:44.760Z,1.40
2023-03-08T08:15:12.229Z,1.30
2023-03-08T08:17:39.371Z,1.30
2023-03-08T08:20:08.324Z,1.20
2023-03-08T08:22:38.783Z,1.10
2023-03-08T08:25:07.667Z,1.00
2023-03-08T08:27:35.998Z,0.90
2023-03-08T08:30:06.062Z,0.90
2023-03-08T08:32:36.811Z,0.80
2023-03-08T08:35:04.956Z,0.80
2023-03-08T08:37:33.566Z,0.80
2023-03-08T08:40:00.761Z,0.70
2023-03-08T08:42:27.828Z,0.70
2023-03-08T08:44:55.415Z,0.70
2023-03-08T08:47:22.480Z,0.70
2023-03-08T08:49:49.590Z,0.70
2023-03-08T08:52:16.729Z,0.70
2023-03-08T08:54:43.878Z,0.80
2023-03-08T08:57:11.005Z,0.70
2023-03-08T08:59:38.450Z,0.80
2023-03-08T09:02:06.373Z,0.90
2023-03-08T09:04:33.702Z,0.90
2023-03-08T09:07:01.178Z,1.00
2023-03-08T09:09:28.250Z,1.10
2023-03-08T09:11:56.106Z,1.20
2023-03-08T09:14:23.783Z,1.30
2023-03-08T09:16:52.562Z,1.30
2023-03-08T09:19:19.975Z,1.30
2023-03-08T09:21:47.101Z,1.40
2023-03-08T09:24:14.852Z,1.50
2023-03-08T09:26:41.949Z,1.50
2023-03-08T09:29:11.163Z,1.60
2023-03-08T09:31:39.414Z,1.50
2023-03-08T09:34:09.472Z,1.60
2023-03-08T09:36:40.162Z,1.60
2023-03-08T09:39:12.026Z,1.70
2023-03-08T09:41:44.862Z,1.80
2023-03-08T09:44:48.370Z,1.80
2023-03-08T09:47:57.660Z,1.80
2023-03-08T09:50:55.551Z,1.80
2023-03-08T09:53:40.348Z,2.00
2023-03-08T09:56:36.096Z,2.00
2023-03-08T09:59:13.552Z,2.10
2023-03-08T10:02:06.285Z,2.20
2023-03-08T10:05:13.349Z,2.30
2023-03-08T10:08:17.736Z,2.40
2023-03-08T10:11:07.542Z,2.50
2023-03-08T10:13:39.208Z,2.60
2023-03-08T10:16:28.858Z,2.60
2023-03-08T10:19:04.829Z,2.70
2023-03-08T10:21:37.064Z,2.80
2023-03-08T10:24:27.433Z,2.70
2023-03-08T10:27:22.844Z,2.80
2023-03-08T10:29:55.167Z,2.80
2023-03-08T10:32:24.069Z,2.80
2023-03-08T10:34:51.398Z,2.80
2023-03-08T10:37:25.063Z,2.80
2023-03-08T10:39:55.181Z,2.80
2023-03-08T10:42:28.454Z,2.90
2023-03-08T10:45:15.943Z,3.00
2023-03-08T10:47:54.588Z,3.00
2023-03-08T10:50:26.207Z,3.00
2023-03-08T10:52:53.419Z,3.00
2023-03-08T10:55:26.919Z,3.20
2023-03-08T10:57:56.544Z,3.20
2023-03-08T11:00:40.088Z,3.20
2023-03-08T11:03:19.317Z,3.30
2023-03-08T11:05:54.488Z,3.40
2023-03-08T11:08:53.742Z,3.40
2023-03-08T11:11:21.374Z,3.60
2023-03-08T11:13:51.987Z,3.60
2023-03-08T11:16:48.744Z,3.70
2023-03-08T11:19:40.547Z,3.80
2023-03-08T11:22:29.298Z,3.80
2023-03-08T11:25:26.689Z,3.90
2023-03-08T11:28:11.926Z,4.00
2023-03-08T11:30:58.886Z,4.10
2023-03-08T11:34:08.781Z,4.30
2023-03-08T11:36:57.637Z,4.30
2023-03-08T11:39:54.058Z,4.40
2023-03-08T11:42:53.371Z,4.50
2023-03-08T11:45:26.425Z,4.60
2023-03-08T11:48:03.078Z,4.60
2023-03-08T11:50:38.666Z,4.60
2023-03-08T11:53:23.883Z,4.60
2023-03-08T11:56:28.403Z,4.60
2023-03-08T11:59:37.090Z,4.60
2023-03-08T12:02:07.159Z,4.60
2023-03-08T12:04:44.629Z,4.70
2023-03-08T12:07:29.228Z,4.80
2023-03-08T12:10:06.747Z,4.80
2023-03-08T12:13:01.526Z,4.80
2023-03-08T12:15:40.189Z,4.90
2023-03-08T12:18:23.554Z,5.00
2023-03-08T12:21:05.747Z,5.00
2023-03-08T12:23:37.181Z,5.10
2023-03-08T12:26:31.047Z,5.10
2023-03-08T12:29:05.821Z,5.20
2023-03-08T12:31:42.764Z,5.20
2023-03-08T12:34:36.186Z,5.30
2023-03-08T12:37:03.950Z,5.40
2023-03-08T12:39:36.920Z,5.40
2023-03-08T12:42:10.134Z,5.50
2023-03-08T12:44:39.204Z,5.50
2023-03-08T12:47:14.903Z,5.60
2023-03-08T12:49:51.064Z,5.70
2023-03-08T12:52:18.224Z,5.70
2023-03-08T12:55:09.209Z,5.80
2023-03-08T12:57:46.848Z,5.90
2023-03-08T13:00:20.206Z,5.90
2023-03-08T13:02:47.456Z,6.00
2023-03-08T13:05:31.200Z,6.00
2023-03-08T13:08:13.512Z,6.10
2023-03-08T13:10:52.446Z,6.20
2023-03-08T13:13:42.343Z,6.30
2023-03-08T13:16:15.372Z,6.40
2023-03-08T13:18:45.324Z,6.50
2023-03-08T13:21:49.297Z,6.40
2023-03-08T13:24:39.700Z,6.60
2023-03-08T13:28:03.658Z,6.70
2023-03-08T13:30:42.623Z,6.80
2023-03-08T13:33:23.175Z,6.90
2023-03-08T13:36:01.216Z,7.00
2023-03-08T13:38:35.687Z,7.10
2023-03-08T13:41:03.292Z,7.10
2023-03-08T13:43:33.626Z,7.20
2023-03-08T13:46:11.558Z,7.20
2023-03-08T13:48:39.315Z,7.20
2023-03-08T13:51:06.761Z,7.10
2023-03-08T13:53:37.743Z,7.20
2023-03-08T13:56:06.769Z,7.30
2023-03-08T13:58:39.824Z,7.30
2023-03-08T14:01:19.521Z,7.30
2023-03-08T14:03:47.441Z,7.20
2023-03-08T14:06:31.097Z,7.20
2023-03-08T14:09:01.561Z,7.20
2023-03-08T14:11:32.655Z,7.10
2023-03-08T14:14:03.351Z,7.30
2023-03-08T14:16:41.957Z,7.30
2023-03-08T14:19:15.222Z,7.40
2023-03-08T14:21:58.897Z,7.40
2023-03-08T14:24:36.460Z,7.50
2023-03-08T14:27:46.897Z,7.40
2023-03-08T14:30:22.384Z,7.50
2023-03-08T14:33:19.229Z,7.60
2023-03-08T14:35:57.918Z,7.70
2023-03-08T14:38:29.380Z,7.80
2023-03-08T14:40:57.615Z,7.80
2023-03-08T14:43:26.719Z,7.80
2023-03-08T14:46:01.615Z,7.90
2023-03-08T14:48:34.874Z,7.90
2023-03-08T14:51:05.057Z,7.90
2023-03-08T14:53:41.359Z,7.90
2023-03-08T14:56:18.222Z,7.90
2023-03-08T14:58:49.519Z,7.80
2023-03-08T15:01:37.833Z,8.00
2023-03-08T15:04:16.670Z,8.00
2023-03-08T15:06:45.196Z,8.00
2023-03-08T15:09:18.016Z,7.90
2023-03-08T15:11:48.375Z,7.90
2023-03-08T15:14:15.856Z,8.10
2023-03-08T15:16:43.077Z,8.20
2023-03-08T15:19:12.141Z,8.20
2023-03-08T15:21:39.385Z,8.30
2023-03-08T15:24:07.816Z,8.30
2023-03-08T15:26:35.035Z,8.40
2023-03-08T15:29:05.297Z,8.50
2023-03-08T15:31:32.581Z,8.50
2023-03-08T15:34:00.516Z,8.50
2023-03-08T15:36:32.530Z,8.50
2023-03-08T15:39:01.432Z,8.50
2023-03-08T15:41:28.530Z,8.60
2023-03-08T15:43:55.694Z,8.70
2023-03-08T15:46:22.894Z,8.60
2023-03-08T15:48:51.284Z,8.60
2023-03-08T15:51:21.102Z,8.60
2023-03-08T15:53:49.601Z,8.70
2023-03-08T15:56:17.014Z,8.70
2023-03-08T15:58:44.075Z,8.70
2023-03-08T16:01:12.126Z,8.70
2023-03-08T16:03:40.307Z,8.70
2023-03-08T16:06:13.215Z,8.70
2023-03-08T16:08:41.312Z,8.70
2023-03-08T16:11:10.994Z,8.70
2023-03-08T16:13:38.259Z,8.70
2023-03-08T16:16:06.328Z,8.70
2023-03-08T16:18:35.349Z,8.80
2023-03-08T16:21:09.100Z,8.80
2023-03-08T16:23:38.388Z,8.70
2023-03-08T16:26:16.675Z,8.70
2023-03-08T16:28:47.865Z,8.70
2023-03-08T16:31:16.629Z,8.70
2023-03-08T16:33:43.962Z,8.70
2023-03-08T16:36:12.418Z,8.60
2023-03-08T16:38:39.882Z,8.60
2023-03-08T16:41:13.151Z,8.60
2023-03-08T16:43:47.930Z,8.60
2023-03-08T16:46:20.463Z,8.60
2023-03-08T16:48:50.023Z,8.50
2023-03-08T16:51:20.154Z,8.50
2023-03-08T16:53:48.637Z,8.50
2023-03-08T16:56:27.166Z,8.50
2023-03-08T16:58:59.586Z,8.50
2023-03-08T17:01:27.032Z,8.50
2023-03-08T17:03:55.507Z,8.60
2023-03-08T17:06:27.670Z,8.60
2023-03-08T17:08:54.870Z,8.50
2023-03-08T17:11:28.769Z,8.50
2023-03-08T17:14:00.511Z,8.50
2023-03-08T17:16:30.881Z,8.50
2023-03-08T17:19:04.851Z,8.40
2023-03-08T17:21:38.467Z,8.40
2023-03-08T17:24:08.826Z,8.30
2023-03-08T17:26:36.968Z,8.40
2023-03-08T17:29:04.375Z,8.40
2023-03-08T17:31:31.602Z,8.30
2023-03-08T17:33:58.807Z,8.30
2023-03-08T17:36:26.558Z,8.30
2023-03-08T17:38:54.751Z,8.10
2023-03-08T17:41:23.113Z,8.00
2023-03-08T17:43:51.004Z,8.00
2023-03-08T17:46:25.325Z,8.00
2023-03-08T17:48:54.122Z,7.90
2023-03-08T17:51:29.539Z,7.90
2023-03-08T17:53:58.306Z,7.90
2023-03-08T17:56:29.757Z,7.80
2023-03-08T17:58:59.505Z,7.80
2023-03-08T18:01:30.008Z,7.80
2023-03-08T18:03:58.053Z,7.80
2023-03-08T18:06:36.289Z,7.80
2023-03-08T18:09:08.682Z,7.80
2023-03-08T18:11:37.938Z,7.80
2023-03-08T18:14:10.800Z,7.70
2023-03-08T18:16:38.919Z,7.70
2023-03-08T18:19:06.881Z,7.70
2023-03-08T18:21:36.544Z,7.80
2023-03-08T18:24:05.369Z,7.80
2023-03-08T18:26:32.777Z,7.80
2023-03-08T18:28:59.911Z,7.80
2023-03-08T18:31:27.254Z,7.80
2023-03-08T18:33:55.515Z,7.80
2023-03-08T18:36:23.679Z,7.70
2023-03-08T18:38:51.048Z,7.70
2023-03-08T18:41:26.365Z,7.70
2023-03-08T18:43:55.500Z,7.70
2023-03-08T18:46:30.483Z,7.70
2023-03-08T18:49:27.295Z,7.60
2023-03-08T18:51:54.434Z,7.70
2023-03-08T18:54:21.569Z,7.70
2023-03-08T18:56:57.100Z,7.60
2023-03-08T18:59:26.649Z,7.60
2023-03-08T19:01:54.896Z,7.70
2023-03-08T19:04:22.043Z,7.70
2023-03-08T19:06:49.591Z,7.70
2023-03-08T19:09:18.474Z,7.70
2023-03-08T19:11:48.199Z,7.70
2023-03-08T19:14:16.839Z,7.60
2023-03-08T19:16:44.200Z,7.60
2023-03-08T19:19:14.796Z,7.50
2023-03-08T19:21:50.954Z,7.50
2023-03-08T19:24:20.475Z,7.50
2023-03-08T19:26:51.288Z,7.50
2023-03-08T19:29:22.483Z,7.50
2023-03-08T19:31:54.000Z,7.50
2023-03-08T19:34:27.835Z,7.50
2023-03-08T19:36:56.085Z,7.50
2023-03-08T19:39:30.428Z,7.50
2023-03-08T19:42:03.981Z,7.70
2023-03-08T19:44:32.330Z,7.70
2023-03-08T19:47:01.068Z,7.80
2023-03-08T19:49:31.620Z,7.80
2023-03-08T19:52:01.898Z,7.80
2023-03-08T19:54:30.194Z,7.80
2023-03-08T19:56:58.539Z,7.70
2023-03-08T19:59:25.968Z,7.80
2023-03-08T20:01:55.023Z,7.80
2023-03-08T20:04:22.690Z,7.70
2023-03-08T20:06:51.148Z,7.60
2023-03-08T20:09:24.837Z,7.60
2023-03-08T20:11:57.729Z,7.60
2023-03-08T20:14:27.415Z,7.50
2023-03-08T20:16:55.604Z,7.50
2023-03-08T20:19:22.938Z,7.40
2023-03-08T20:21:50.086Z,7.40
2023-03-08T20:24:22.321Z,7.40
2023-03-08T20:26:49.459Z,7.40
2023-03-08T20:29:21.471Z,7.40
2023-03-08T20:31:49.078Z,7.40
2023-03-08T20:34:17.386Z,7.40
2023-03-08T20:36:44.791Z,7.40
2023-03-08T20:39:11.996Z,7.40
2023-03-08T20:41:39.075Z,7.40
2023-03-08T20:44:06.169Z,7.40
2023-03-08T20:46:33.931Z,7.40
2023-03-08T20:49:01.731Z,7.30
2023-03-08T20:51:29.206Z,7.30
2023-03-08T20:53:57.168Z,7.30
2023-03-08T20:56:25.802Z,7.30
2023-03-08T20:58:54.839Z,7.30
2023-03-08T21:01:29.165Z,7.30
2023-03-08T21:03:56.420Z,7.40
2023-03-08T21:06:33.251Z,7.30
2023-03-08T21:09:00.959Z,7.30
2023-03-08T21:11:28.803Z,7.30
2023-03-08T21:13:56.789Z,7.40
2023-03-08T21:16:27.188Z,7.30
2023-03-08T21:19:01.239Z,7.30
2023-03-08T21:21:41.108Z,7.40
2023-03-08T21:24:19.034Z,7.40
2023-03-08T21:26:46.700Z,7.40
2023-03-08T21:29:17.483Z,7.40
2023-03-08T21:31:48.647Z,7.40
2023-03-08T21:34:16.936Z,7.50
2023-03-08T21:36:44.843Z,7.40
2023-03-08T21:39:13.011Z,7.40
2023-03-08T21:41:46.427Z,7.40
2023-03-08T21:44:17.813Z,7.40
2023-03-08T21:46:46.679Z,7.30
2023-03-08T21:49:27.206Z,7.30
2023-03-08T21:51:56.458Z,7.30
2023-03-08T21:54:26.234Z,7.40
2023-03-08T21:56:53.481Z,7.30
2023-03-08T21:59:24.704Z,7.30
2023-03-08T22:01:54.669Z,7.30
2023-03-08T22:04:22.284Z,7.40
2023-03-08T22:06:49.468Z,7.40
2023-03-08T22:09:16.626Z,7.50
2023-03-08T22:11:43.876Z,7.60
2023-03-08T22:14:11.366Z,7.70
2023-03-08T22:16:40.059Z,7.80
2023-03-08T22:19:07.144Z,7.80
2023-03-08T22:21:34.274Z,7.90
2023-03-08T22:24:02.976Z,8.00
2023-03-08T22:26:31.668Z,8.00
2023-03-08T22:29:00.167Z,8.10
2023-03-08T22:31:29.850Z,8.20
2023-03-08T22:33:57.814Z,8.30
2023-03-08T22:36:25.536Z,8.20
2023-03-08T22:38:52.824Z,8.30
2023-03-08T22:41:23.980Z,8.40
2023-03-08T22:43:51.468Z,8.40
2023-03-08T22:46:25.706Z,8.40
2023-03-08T22:48:56.596Z,8.50
2023-03-08T22:51:25.109Z,8.50
2023-03-08T22:53:52.260Z,8.60
2023-03-08T22:56:30.391Z,8.60
2023-03-08T22:58:58.418Z,8.50
2023-03-08T23:01:27.270Z,8.50
2023-03-08T23:03:57.222Z,8.50
2023-03-08T23:06:28.666Z,8.50
2023-03-08T23:09:02.176Z,8.40
2023-03-08T23:11:29.848Z,8.40
2023-03-08T23:13:59.062Z,8.50
2023-03-08T23:16:26.735Z,8.40
2023-03-08T23:18:55.505Z,8.40
2023-03-08T23:21:26.159Z,8.50
2023-03-08T23:23:53.509Z,8.60
2023-03-08T23:26:26.597Z,8.60
2023-03-08T23:28:56.933Z,8.60
2023-03-08T23:31:28.851Z,8.70
2023-03-08T23:33:57.332Z,8.70
2023-03-08T23:36:26.735Z,8.80
2023-03-08T23:38:54.243Z,8.70
2023-03-08T23:41:22.143Z,8.70
2023-03-08T23:43:49.475Z,8.70
2023-03-08T23:46:19.463Z,8.80
2023-03-08T23:48:48.393Z,8.80
2023-03-08T23:51:20.797Z,8.80
2023-03-08T23:53:54.460Z,8.90
2023-03-08T23:56:37.636Z,9.00
2023-03-08T23:59:15.332Z,9.10
